sensor_id;sensor_type;location;lat;lon;timestamp;P1;durP1;ratioP1;P2;durP2;ratioP2
63110;SDS011;49201;53.426;10.300;2022-09-16T00:02:09;7.60;;;2.43;;
63110;SDS011;49201;53.426;10.300;2022-09-16T00:04:34;6.47;;;2.50;;
63110;SDS011;49201;53.426;10.300;2022-09-16T00:07:00;15.50;;;3.17;;
63110;SDS011;49201;53.426;10.300;2022-09-16T00:09:25;10.63;;;2.77;;
63110;SDS011;49201;53.426;10.300;2022-09-16T00:11:51;6.23;;;2.63;;
63110;SDS011;49201;53.426;10.300;2022-09-16T00:14:16;8.90;;;2.67;;
63110;SDS011;49201;53.426;10.300;2022-09-16T00:16:42;5.63;;;2.73;;
63110;SDS011;49201;53.426;10.300;2022-09-16T00:19:07;8.17;;;2.40;;
63110;SDS011;49201;53.426;10.300;2022-09-16T00:21:33;7.23;;;2.67;;
63110;SDS011;49201;53.426;10.300;2022-09-16T00:23:58;8.50;;;2.43;;
63110;SDS011;49201;53.426;10.300;2022-09-16T00:26:24;9.90;;;2.50;;
63110;SDS011;49201;53.426;10.300;2022-09-16T00:28:50;6.03;;;1.67;;
63110;SDS011;49201;53.426;10.300;2022-09-16T00:31:16;9.10;;;2.53;;
63110;SDS011;49201;53.426;10.300;2022-09-16T00:33:42;8.43;;;2.03;;
63110;SDS011;49201;53.426;10.300;2022-09-16T00:36:15;5.97;;;2.10;;
63110;SDS011;49201;53.426;10.300;2022-09-16T00:38:42;8.00;;;1.90;;
63110;SDS011;49201;53.426;10.300;2022-09-16T00:41:14;9.07;;;2.30;;
63110;SDS011;49201;53.426;10.300;2022-09-16T00:43:46;9.47;;;2.40;;
63110;SDS011;49201;53.426;10.300;2022-09-16T00:46:13;6.97;;;2.23;;
63110;SDS011;49201;53.426;10.300;2022-09-16T00:48:41;8.00;;;2.10;;
63110;SDS011;49201;53.426;10.300;2022-09-16T00:51:07;6.17;;;2.13;;
63110;SDS011;49201;53.426;10.300;2022-09-16T00:53:52;6.77;;;2.33;;
63110;SDS011;49201;53.426;10.300;2022-09-16T00:56:22;7.00;;;2.27;;
63110;SDS011;49201;53.426;10.300;2022-09-16T01:01:53;8.30;;;2.63;;
63110;SDS011;49201;53.426;10.300;2022-09-16T01:04:24;8.53;;;2.00;;
63110;SDS011;49201;53.426;10.300;2022-09-16T01:06:53;6.60;;;2.17;;
63110;SDS011;49201;53.426;10.300;2022-09-16T01:09:21;6.77;;;1.90;;
63110;SDS011;49201;53.426;10.300;2022-09-16T01:11:48;6.70;;;2.00;;
63110;SDS011;49201;53.426;10.300;2022-09-16T01:14:13;5.60;;;1.50;;
63110;SDS011;49201;53.426;10.300;2022-09-16T01:19:43;7.97;;;1.90;;
63110;SDS011;49201;53.426;10.300;2022-09-16T01:22:38;5.50;;;1.73;;
63110;SDS011;49201;53.426;10.300;2022-09-16T01:36:29;6.27;;;2.03;;
63110;SDS011;49201;53.426;10.300;2022-09-16T01:39:12;8.27;;;2.13;;
63110;SDS011;49201;53.426;10.300;2022-09-16T01:44:42;4.03;;;1.67;;
63110;SDS011;49201;53.426;10.300;2022-09-16T02:01:17;8.73;;;2.10;;
63110;SDS011;49201;53.426;10.300;2022-09-16T02:03:53;4.17;;;1.80;;
63110;SDS011;49201;53.426;10.300;2022-09-16T02:06:24;9.07;;;2.60;;
63110;SDS011;49201;53.426;10.300;2022-09-16T02:08:56;6.33;;;2.50;;
63110;SDS011;49201;53.426;10.300;2022-09-16T02:11:24;4.93;;;2.10;;
63110;SDS011;49201;53.426;10.300;2022-09-16T02:14:07;6.53;;;1.90;;
63110;SDS011;49201;53.426;10.300;2022-09-16T02:16:49;5.60;;;2.30;;
63110;SDS011;49201;53.426;10.300;2022-09-16T02:19:42;5.30;;;2.10;;
63110;SDS011;49201;53.426;10.300;2022-09-16T02:22:15;7.10;;;2.73;;
63110;SDS011;49201;53.426;10.300;2022-09-16T02:24:43;6.53;;;2.87;;
63110;SDS011;49201;53.426;10.300;2022-09-16T02:27:12;5.37;;;2.60;;
63110;SDS011;49201;53.426;10.300;2022-09-16T02:29:42;6.07;;;2.77;;
63110;SDS011;49201;53.426;10.300;2022-09-16T02:32:17;10.47;;;2.83;;
63110;SDS011;49201;53.426;10.300;2022-09-16T02:34:45;6.80;;;2.80;;
63110;SDS011;49201;53.426;10.300;2022-09-16T02:38:15;5.67;;;2.70;;
63110;SDS011;49201;53.426;10.300;2022-09-16T02:40:33;9.37;;;2.90;;
63110;SDS011;49201;53.426;10.300;2022-09-16T02:43:03;8.03;;;2.40;;
63110;SDS011;49201;53.426;10.300;2022-09-16T02:52:02;5.20;;;2.10;;
63110;SDS011;49201;53.426;10.300;2022-09-16T02:54:32;8.97;;;2.10;;
63110;SDS011;49201;53.426;10.300;2022-09-16T02:56:58;6.73;;;2.40;;
63110;SDS011;49201;53.426;10.300;2022-09-16T02:59:23;6.53;;;2.20;;
63110;SDS011;49201;53.426;10.300;2022-09-16T03:01:49;5.07;;;2.47;;
63110;SDS011;49201;53.426;10.300;2022-09-16T03:04:17;4.93;;;1.93;;
63110;SDS011;49201;53.426;10.300;2022-09-16T03:06:44;8.73;;;2.40;;
63110;SDS011;49201;53.426;10.300;2022-09-16T03:09:11;5.80;;;2.27;;
63110;SDS011;49201;53.426;10.300;2022-09-16T03:23:31;9.00;;;2.10;;
63110;SDS011;49201;53.426;10.300;2022-09-16T03:31:09;5.33;;;2.10;;
63110;SDS011;49201;53.426;10.300;2022-09-16T03:33:56;6.77;;;2.17;;
63110;SDS011;49201;53.426;10.300;2022-09-16T03:36:31;8.63;;;3.10;;
63110;SDS011;49201;53.426;10.300;2022-09-16T03:39:01;4.77;;;2.20;;
63110;SDS011;49201;53.426;10.300;2022-09-16T03:41:28;5.20;;;2.70;;
63110;SDS011;49201;53.426;10.300;2022-09-16T03:43:57;6.87;;;2.27;;
63110;SDS011;49201;53.426;10.300;2022-09-16T03:46:23;6.23;;;2.50;;
63110;SDS011;49201;53.426;10.300;2022-09-16T03:48:50;6.63;;;2.63;;
63110;SDS011;49201;53.426;10.300;2022-09-16T03:51:16;8.37;;;2.63;;
63110;SDS011;49201;53.426;10.300;2022-09-16T03:53:42;7.87;;;2.43;;
63110;SDS011;49201;53.426;10.300;2022-09-16T03:56:07;7.30;;;2.60;;
63110;SDS011;49201;53.426;10.300;2022-09-16T03:58:33;5.20;;;2.50;;
63110;SDS011;49201;53.426;10.300;2022-09-16T04:00:58;4.03;;;2.70;;
63110;SDS011;49201;53.426;10.300;2022-09-16T04:03:24;6.87;;;3.30;;
63110;SDS011;49201;53.426;10.300;2022-09-16T04:05:52;7.23;;;3.20;;
63110;SDS011;49201;53.426;10.300;2022-09-16T04:08:19;5.97;;;2.83;;
63110;SDS011;49201;53.426;10.300;2022-09-16T04:13:43;8.00;;;4.60;;
63110;SDS011;49201;53.426;10.300;2022-09-16T04:16:08;11.03;;;4.47;;
63110;SDS011;49201;53.426;10.300;2022-09-16T04:18:34;6.97;;;4.07;;
63110;SDS011;49201;53.426;10.300;2022-09-16T04:21:00;8.37;;;4.47;;
63110;SDS011;49201;53.426;10.300;2022-09-16T04:23:27;8.97;;;4.27;;
63110;SDS011;49201;53.426;10.300;2022-09-16T04:25:57;8.60;;;4.00;;
63110;SDS011;49201;53.426;10.300;2022-09-16T04:28:24;7.30;;;4.40;;
63110;SDS011;49201;53.426;10.300;2022-09-16T04:30:50;6.47;;;3.60;;
63110;SDS011;49201;53.426;10.300;2022-09-16T04:33:16;7.00;;;3.60;;
63110;SDS011;49201;53.426;10.300;2022-09-16T04:35:42;6.33;;;3.60;;
63110;SDS011;49201;53.426;10.300;2022-09-16T04:38:07;5.63;;;3.03;;
63110;SDS011;49201;53.426;10.300;2022-09-16T04:40:33;9.00;;;3.80;;
63110;SDS011;49201;53.426;10.300;2022-09-16T04:42:58;5.47;;;3.10;;
63110;SDS011;49201;53.426;10.300;2022-09-16T04:45:23;9.40;;;3.30;;
63110;SDS011;49201;53.426;10.300;2022-09-16T04:47:54;9.07;;;3.30;;
63110;SDS011;49201;53.426;10.300;2022-09-16T04:50:23;7.97;;;3.03;;
63110;SDS011;49201;53.426;10.300;2022-09-16T04:52:49;5.67;;;3.10;;
63110;SDS011;49201;53.426;10.300;2022-09-16T04:55:16;6.17;;;3.60;;
63110;SDS011;49201;53.426;10.300;2022-09-16T04:57:42;8.93;;;3.00;;
63110;SDS011;49201;53.426;10.300;2022-09-16T05:00:07;7.93;;;3.40;;
63110;SDS011;49201;53.426;10.300;2022-09-16T05:02:34;4.33;;;2.83;;
63110;SDS011;49201;53.426;10.300;2022-09-16T05:04:59;7.60;;;2.77;;
63110;SDS011;49201;53.426;10.300;2022-09-16T05:07:26;6.57;;;3.23;;
63110;SDS011;49201;53.426;10.300;2022-09-16T05:09:53;6.17;;;3.30;;
63110;SDS011;49201;53.426;10.300;2022-09-16T05:12:18;6.90;;;3.33;;
63110;SDS011;49201;53.426;10.300;2022-09-16T05:14:44;7.43;;;3.23;;
63110;SDS011;49201;53.426;10.300;2022-09-16T05:17:09;9.90;;;3.17;;
63110;SDS011;49201;53.426;10.300;2022-09-16T05:19:35;5.40;;;2.93;;
63110;SDS011;49201;53.426;10.300;2022-09-16T05:22:00;4.67;;;2.97;;
63110;SDS011;49201;53.426;10.300;2022-09-16T05:24:32;6.10;;;2.93;;
63110;SDS011;49201;53.426;10.300;2022-09-16T05:26:58;5.63;;;2.40;;
63110;SDS011;49201;53.426;10.300;2022-09-16T05:29:23;5.57;;;2.57;;
63110;SDS011;49201;53.426;10.300;2022-09-16T05:31:48;6.20;;;2.47;;
63110;SDS011;49201;53.426;10.300;2022-09-16T05:34:18;7.50;;;2.80;;
63110;SDS011;49201;53.426;10.300;2022-09-16T05:36:45;9.33;;;2.90;;
63110;SDS011;49201;53.426;10.300;2022-09-16T05:39:13;9.17;;;2.97;;
63110;SDS011;49201;53.426;10.300;2022-09-16T05:41:42;5.83;;;2.50;;
63110;SDS011;49201;53.426;10.300;2022-09-16T05:44:08;7.63;;;2.70;;
63110;SDS011;49201;53.426;10.300;2022-09-16T05:46:35;6.83;;;2.93;;
63110;SDS011;49201;53.426;10.300;2022-09-16T05:49:00;5.40;;;3.33;;
63110;SDS011;49201;53.426;10.300;2022-09-16T05:51:26;8.47;;;3.43;;
63110;SDS011;49201;53.426;10.300;2022-09-16T05:53:52;6.47;;;3.20;;
63110;SDS011;49201;53.426;10.300;2022-09-16T05:56:19;6.17;;;2.90;;
63110;SDS011;49201;53.426;10.300;2022-09-16T05:58:53;7.13;;;2.73;;
63110;SDS011;49201;53.426;10.300;2022-09-16T06:01:21;6.23;;;2.53;;
63110;SDS011;49201;53.426;10.300;2022-09-16T06:03:48;5.60;;;1.90;;
63110;SDS011;49201;53.426;10.300;2022-09-16T06:06:19;5.90;;;2.20;;
63110;SDS011;49201;53.426;10.300;2022-09-16T06:08:48;6.53;;;1.67;;
63110;SDS011;49201;53.426;10.300;2022-09-16T06:11:15;8.53;;;2.73;;
63110;SDS011;49201;53.426;10.300;2022-09-16T06:13:40;6.93;;;2.30;;
63110;SDS011;49201;53.426;10.300;2022-09-16T06:16:07;8.53;;;2.97;;
63110;SDS011;49201;53.426;10.300;2022-09-16T06:18:33;7.80;;;3.03;;
63110;SDS011;49201;53.426;10.300;2022-09-16T06:21:08;5.50;;;2.63;;
63110;SDS011;49201;53.426;10.300;2022-09-16T06:23:35;7.07;;;2.83;;
63110;SDS011;49201;53.426;10.300;2022-09-16T06:26:03;7.60;;;3.47;;
63110;SDS011;49201;53.426;10.300;2022-09-16T06:28:30;9.40;;;3.70;;
63110;SDS011;49201;53.426;10.300;2022-09-16T06:31:00;10.60;;;4.07;;
63110;SDS011;49201;53.426;10.300;2022-09-16T06:33:30;8.90;;;3.63;;
63110;SDS011;49201;53.426;10.300;2022-09-16T06:35:56;7.67;;;3.80;;
63110;SDS011;49201;53.426;10.300;2022-09-16T06:38:22;10.50;;;3.67;;
63110;SDS011;49201;53.426;10.300;2022-09-16T06:40:48;12.23;;;4.30;;
63110;SDS011;49201;53.426;10.300;2022-09-16T06:43:14;4.03;;;2.67;;
63110;SDS011;49201;53.426;10.300;2022-09-16T06:45:40;7.70;;;3.17;;
63110;SDS011;49201;53.426;10.300;2022-09-16T06:48:05;9.20;;;3.40;;
63110;SDS011;49201;53.426;10.300;2022-09-16T06:50:31;6.83;;;3.03;;
63110;SDS011;49201;53.426;10.300;2022-09-16T06:52:56;7.77;;;2.47;;
63110;SDS011;49201;53.426;10.300;2022-09-16T06:55:22;7.30;;;2.27;;
63110;SDS011;49201;53.426;10.300;2022-09-16T06:57:47;6.63;;;2.07;;
63110;SDS011;49201;53.426;10.300;2022-09-16T07:00:12;4.80;;;1.60;;
63110;SDS011;49201;53.426;10.300;2022-09-16T07:02:38;8.10;;;2.23;;
63110;SDS011;49201;53.426;10.300;2022-09-16T07:05:03;7.27;;;2.10;;
63110;SDS011;49201;53.426;10.300;2022-09-16T07:07:30;9.03;;;2.53;;
63110;SDS011;49201;53.426;10.300;2022-09-16T07:10:00;7.37;;;1.53;;
63110;SDS011;49201;53.426;10.300;2022-09-16T07:12:27;7.10;;;1.80;;
63110;SDS011;49201;53.426;10.300;2022-09-16T07:14:52;5.97;;;1.67;;
63110;SDS011;49201;53.426;10.300;2022-09-16T07:17:18;5.97;;;1.60;;
63110;SDS011;49201;53.426;10.300;2022-09-16T07:19:43;8.43;;;1.80;;
63110;SDS011;49201;53.426;10.300;2022-09-16T07:22:09;8.07;;;2.00;;
63110;SDS011;49201;53.426;10.300;2022-09-16T07:24:35;6.60;;;1.37;;
63110;SDS011;49201;53.426;10.300;2022-09-16T07:27:01;4.33;;;1.57;;
63110;SDS011;49201;53.426;10.300;2022-09-16T07:29:26;7.03;;;1.17;;
63110;SDS011;49201;53.426;10.300;2022-09-16T07:31:52;9.63;;;2.23;;
63110;SDS011;49201;53.426;10.300;2022-09-16T07:34:17;6.80;;;1.60;;
63110;SDS011;49201;53.426;10.300;2022-09-16T07:36:44;3.70;;;1.27;;
63110;SDS011;49201;53.426;10.300;2022-09-16T07:39:13;3.53;;;1.20;;
63110;SDS011;49201;53.426;10.300;2022-09-16T07:41:41;4.27;;;1.23;;
63110;SDS011;49201;53.426;10.300;2022-09-16T07:44:09;4.60;;;1.80;;
63110;SDS011;49201;53.426;10.300;2022-09-16T07:46:36;5.60;;;1.33;;
63110;SDS011;49201;53.426;10.300;2022-09-16T07:49:03;7.20;;;1.30;;
63110;SDS011;49201;53.426;10.300;2022-09-16T07:51:30;4.23;;;1.10;;
63110;SDS011;49201;53.426;10.300;2022-09-16T07:53:57;4.17;;;1.33;;
63110;SDS011;49201;53.426;10.300;2022-09-16T07:56:25;6.47;;;1.57;;
63110;SDS011;49201;53.426;10.300;2022-09-16T07:58:53;4.63;;;1.50;;
63110;SDS011;49201;53.426;10.300;2022-09-16T08:01:19;3.57;;;1.13;;
63110;SDS011;49201;53.426;10.300;2022-09-16T08:03:45;6.00;;;1.47;;
63110;SDS011;49201;53.426;10.300;2022-09-16T08:06:13;5.47;;;1.20;;
63110;SDS011;49201;53.426;10.300;2022-09-16T08:08:40;5.53;;;1.33;;
63110;SDS011;49201;53.426;10.300;2022-09-16T08:11:06;4.63;;;1.13;;
63110;SDS011;49201;53.426;10.300;2022-09-16T08:13:34;5.40;;;1.50;;
63110;SDS011;49201;53.426;10.300;2022-09-16T08:16:02;7.53;;;1.57;;
63110;SDS011;49201;53.426;10.300;2022-09-16T08:18:32;6.43;;;1.53;;
63110;SDS011;49201;53.426;10.300;2022-09-16T08:21:03;8.73;;;1.43;;
63110;SDS011;49201;53.426;10.300;2022-09-16T08:23:32;4.67;;;1.37;;
63110;SDS011;49201;53.426;10.300;2022-09-16T08:25:59;5.17;;;1.50;;
63110;SDS011;49201;53.426;10.300;2022-09-16T08:28:24;5.17;;;1.30;;
63110;SDS011;49201;53.426;10.300;2022-09-16T08:30:51;6.87;;;1.33;;
63110;SDS011;49201;53.426;10.300;2022-09-16T08:33:17;6.20;;;2.03;;
63110;SDS011;49201;53.426;10.300;2022-09-16T08:36:01;8.70;;;1.73;;
63110;SDS011;49201;53.426;10.300;2022-09-16T08:38:39;5.00;;;1.73;;
63110;SDS011;49201;53.426;10.300;2022-09-16T08:43:52;6.33;;;1.70;;
63110;SDS011;49201;53.426;10.300;2022-09-16T08:49:18;3.73;;;1.13;;
63110;SDS011;49201;53.426;10.300;2022-09-16T08:51:46;9.13;;;1.83;;
63110;SDS011;49201;53.426;10.300;2022-09-16T08:54:16;8.77;;;1.60;;
63110;SDS011;49201;53.426;10.300;2022-09-16T08:56:53;4.97;;;1.10;;
63110;SDS011;49201;53.426;10.300;2022-09-16T08:59:23;4.33;;;1.30;;
63110;SDS011;49201;53.426;10.300;2022-09-16T09:01:56;5.43;;;1.50;;
63110;SDS011;49201;53.426;10.300;2022-09-16T09:04:32;5.63;;;1.30;;
63110;SDS011;49201;53.426;10.300;2022-09-16T09:10:12;4.30;;;1.25;;
63110;SDS011;49201;53.426;10.300;2022-09-16T09:12:58;6.55;;;1.52;;
63110;SDS011;49201;53.426;10.300;2022-09-16T09:18:06;5.97;;;1.85;;
63110;SDS011;49201;53.426;10.300;2022-09-16T09:34:34;4.40;;;1.42;;
63110;SDS011;49201;53.426;10.300;2022-09-16T09:40:15;5.55;;;1.70;;
63110;SDS011;49201;53.426;10.300;2022-09-16T09:45:28;7.68;;;1.77;;
63110;SDS011;49201;53.426;10.300;2022-09-16T09:50:51;7.20;;;1.70;;
63110;SDS011;49201;53.426;10.300;2022-09-16T09:53:25;4.83;;;1.53;;
63110;SDS011;49201;53.426;10.300;2022-09-16T10:01:41;6.27;;;1.30;;
63110;SDS011;49201;53.426;10.300;2022-09-16T10:04:13;4.73;;;1.30;;
63110;SDS011;49201;53.426;10.300;2022-09-16T10:06:39;4.43;;;1.17;;
63110;SDS011;49201;53.426;10.300;2022-09-16T10:09:11;5.20;;;1.02;;
63110;SDS011;49201;53.426;10.300;2022-09-16T10:11:59;2.65;;;1.10;;
63110;SDS011;49201;53.426;10.300;2022-09-16T10:17:02;3.72;;;1.27;;
63110;SDS011;49201;53.426;10.300;2022-09-16T10:19:48;2.17;;;1.10;;
63110;SDS011;49201;53.426;10.300;2022-09-16T10:22:27;4.00;;;1.30;;
63110;SDS011;49201;53.426;10.300;2022-09-16T10:24:55;4.68;;;1.40;;
63110;SDS011;49201;53.426;10.300;2022-09-16T10:27:32;3.38;;;1.30;;
63110;SDS011;49201;53.426;10.300;2022-09-16T10:32:46;5.20;;;1.73;;
63110;SDS011;49201;53.426;10.300;2022-09-16T10:35:34;4.07;;;1.25;;
63110;SDS011;49201;53.426;10.300;2022-09-16T10:40:33;4.28;;;1.40;;
63110;SDS011;49201;53.426;10.300;2022-09-16T10:43:05;5.20;;;1.60;;
63110;SDS011;49201;53.426;10.300;2022-09-16T10:45:46;4.68;;;1.50;;
63110;SDS011;49201;53.426;10.300;2022-09-16T10:48:14;3.97;;;1.60;;
63110;SDS011;49201;53.426;10.300;2022-09-16T10:50:52;4.50;;;1.80;;
63110;SDS011;49201;53.426;10.300;2022-09-16T10:53:26;4.25;;;1.30;;
63110;SDS011;49201;53.426;10.300;2022-09-16T10:56:04;4.82;;;1.48;;
63110;SDS011;49201;53.426;10.300;2022-09-16T10:59:03;4.65;;;1.38;;
63110;SDS011;49201;53.426;10.300;2022-09-16T11:07:23;6.53;;;1.80;;
63110;SDS011;49201;53.426;10.300;2022-09-16T11:09:54;4.43;;;2.47;;
63110;SDS011;49201;53.426;10.300;2022-09-16T11:15:05;3.83;;;1.42;;
63110;SDS011;49201;53.426;10.300;2022-09-16T11:20:34;5.90;;;1.50;;
63110;SDS011;49201;53.426;10.300;2022-09-16T11:23:19;3.17;;;1.50;;
63110;SDS011;49201;53.426;10.300;2022-09-16T11:26:13;3.63;;;1.45;;
63110;SDS011;49201;53.426;10.300;2022-09-16T11:32:19;5.07;;;1.87;;
63110;SDS011;49201;53.426;10.300;2022-09-16T11:40:26;5.20;;;1.70;;
63110;SDS011;49201;53.426;10.300;2022-09-16T11:43:00;4.97;;;1.63;;
63110;SDS011;49201;53.426;10.300;2022-09-16T11:56:03;6.57;;;2.00;;
63110;SDS011;49201;53.426;10.300;2022-09-16T11:58:43;6.27;;;1.67;;
63110;SDS011;49201;53.426;10.300;2022-09-16T12:04:15;6.03;;;1.73;;
63110;SDS011;49201;53.426;10.300;2022-09-16T12:12:37;6.13;;;1.40;;
63110;SDS011;49201;53.426;10.300;2022-09-16T12:15:18;5.53;;;1.40;;
63110;SDS011;49201;53.426;10.300;2022-09-16T12:21:08;5.17;;;2.33;;
63110;SDS011;49201;53.426;10.300;2022-09-16T12:23:40;4.27;;;1.53;;
63110;SDS011;49201;53.426;10.300;2022-09-16T12:26:10;4.93;;;1.83;;
63110;SDS011;49201;53.426;10.300;2022-09-16T12:28:50;3.13;;;1.13;;
63110;SDS011;49201;53.426;10.300;2022-09-16T12:35:18;3.90;;;1.20;;
63110;SDS011;49201;53.426;10.300;2022-09-16T12:37:47;3.97;;;1.23;;
63110;SDS011;49201;53.426;10.300;2022-09-16T12:40:19;3.80;;;1.20;;
63110;SDS011;49201;53.426;10.300;2022-09-16T12:46:20;5.50;;;1.60;;
63110;SDS011;49201;53.426;10.300;2022-09-16T12:56:56;6.43;;;1.30;;
63110;SDS011;49201;53.426;10.300;2022-09-16T13:02:19;4.27;;;2.10;;
63110;SDS011;49201;53.426;10.300;2022-09-16T13:04:49;6.23;;;1.93;;
63110;SDS011;49201;53.426;10.300;2022-09-16T13:07:27;3.73;;;1.10;;
63110;SDS011;49201;53.426;10.300;2022-09-16T13:10:05;5.53;;;1.40;;
63110;SDS011;49201;53.426;10.300;2022-09-16T13:12:33;3.60;;;1.20;;
63110;SDS011;49201;53.426;10.300;2022-09-16T13:15:00;5.60;;;2.67;;
63110;SDS011;49201;53.426;10.300;2022-09-16T13:17:38;5.87;;;1.57;;
63110;SDS011;49201;53.426;10.300;2022-09-16T13:33:35;5.80;;;1.43;;
63110;SDS011;49201;53.426;10.300;2022-09-16T13:38:49;8.17;;;1.20;;
63110;SDS011;49201;53.426;10.300;2022-09-16T13:41:35;5.33;;;1.73;;
63110;SDS011;49201;53.426;10.300;2022-09-16T13:44:46;7.07;;;1.60;;
63110;SDS011;49201;53.426;10.300;2022-09-16T13:46:49;4.57;;;1.37;;
63110;SDS011;49201;53.426;10.300;2022-09-16T13:49:17;5.50;;;1.40;;
63110;SDS011;49201;53.426;10.300;2022-09-16T13:51:46;4.60;;;1.40;;
63110;SDS011;49201;53.426;10.300;2022-09-16T13:54:33;5.13;;;1.30;;
63110;SDS011;49201;53.426;10.300;2022-09-16T14:13:20;5.30;;;1.30;;
63110;SDS011;49201;53.426;10.300;2022-09-16T14:15:57;4.00;;;1.20;;
63110;SDS011;49201;53.426;10.300;2022-09-16T14:18:31;7.40;;;1.53;;
63110;SDS011;49201;53.426;10.300;2022-09-16T14:21:05;4.13;;;1.00;;
63110;SDS011;49201;53.426;10.300;2022-09-16T14:23:41;3.10;;;0.70;;
63110;SDS011;49201;53.426;10.300;2022-09-16T14:26:13;4.53;;;1.07;;
63110;SDS011;49201;53.426;10.300;2022-09-16T14:28:40;8.00;;;1.80;;
63110;SDS011;49201;53.426;10.300;2022-09-16T14:31:07;8.93;;;6.30;;
63110;SDS011;49201;53.426;10.300;2022-09-16T14:33:52;8.37;;;3.27;;
63110;SDS011;49201;53.426;10.300;2022-09-16T14:36:24;5.57;;;1.87;;
63110;SDS011;49201;53.426;10.300;2022-09-16T14:39:02;6.83;;;2.97;;
63110;SDS011;49201;53.426;10.300;2022-09-16T14:41:35;4.67;;;1.10;;
63110;SDS011;49201;53.426;10.300;2022-09-16T14:46:48;6.37;;;1.80;;
63110;SDS011;49201;53.426;10.300;2022-09-16T14:49:22;8.07;;;1.60;;
63110;SDS011;49201;53.426;10.300;2022-09-16T14:51:50;5.30;;;1.47;;
63110;SDS011;49201;53.426;10.300;2022-09-16T14:54:19;7.83;;;1.50;;
63110;SDS011;49201;53.426;10.300;2022-09-16T14:59:25;4.90;;;1.33;;
63110;SDS011;49201;53.426;10.300;2022-09-16T15:01:58;5.50;;;1.33;;
63110;SDS011;49201;53.426;10.300;2022-09-16T15:04:30;8.73;;;2.43;;
63110;SDS011;49201;53.426;10.300;2022-09-16T15:07:00;7.50;;;1.70;;
63110;SDS011;49201;53.426;10.300;2022-09-16T15:15:02;5.97;;;1.57;;
63110;SDS011;49201;53.426;10.300;2022-09-16T15:17:29;11.30;;;4.07;;
63110;SDS011;49201;53.426;10.300;2022-09-16T15:19:58;7.10;;;1.60;;
63110;SDS011;49201;53.426;10.300;2022-09-16T15:22:24;9.20;;;2.37;;
63110;SDS011;49201;53.426;10.300;2022-09-16T15:24:54;10.27;;;2.03;;
63110;SDS011;49201;53.426;10.300;2022-09-16T15:27:24;14.57;;;4.10;;
63110;SDS011;49201;53.426;10.300;2022-09-16T15:29:56;5.47;;;2.13;;
63110;SDS011;49201;53.426;10.300;2022-09-16T15:32:26;11.33;;;2.03;;
63110;SDS011;49201;53.426;10.300;2022-09-16T15:37:36;10.53;;;1.70;;
63110;SDS011;49201;53.426;10.300;2022-09-16T15:40:18;7.63;;;1.83;;
63110;SDS011;49201;53.426;10.300;2022-09-16T15:42:46;11.00;;;2.57;;
63110;SDS011;49201;53.426;10.300;2022-09-16T15:45:14;8.83;;;2.30;;
63110;SDS011;49201;53.426;10.300;2022-09-16T15:48:01;9.33;;;2.83;;
63110;SDS011;49201;53.426;10.300;2022-09-16T15:50:35;12.00;;;3.50;;
63110;SDS011;49201;53.426;10.300;2022-09-16T15:53:06;12.87;;;4.40;;
63110;SDS011;49201;53.426;10.300;2022-09-16T16:01:33;11.67;;;2.40;;
63110;SDS011;49201;53.426;10.300;2022-09-16T16:04:12;9.83;;;3.37;;
63110;SDS011;49201;53.426;10.300;2022-09-16T16:06:50;10.00;;;3.20;;
63110;SDS011;49201;53.426;10.300;2022-09-16T16:12:03;9.90;;;2.53;;
63110;SDS011;49201;53.426;10.300;2022-09-16T16:14:40;7.17;;;1.70;;
63110;SDS011;49201;53.426;10.300;2022-09-16T16:19:44;8.60;;;2.13;;
63110;SDS011;49201;53.426;10.300;2022-09-16T16:22:11;7.60;;;1.60;;
63110;SDS011;49201;53.426;10.300;2022-09-16T16:24:36;9.67;;;2.57;;
63110;SDS011;49201;53.426;10.300;2022-09-16T16:27:02;10.43;;;1.90;;
63110;SDS011;49201;53.426;10.300;2022-09-16T16:29:28;4.83;;;1.63;;
63110;SDS011;49201;53.426;10.300;2022-09-16T16:32:12;8.43;;;1.90;;
63110;SDS011;49201;53.426;10.300;2022-09-16T16:34:42;8.77;;;1.50;;
63110;SDS011;49201;53.426;10.300;2022-09-16T16:37:09;8.27;;;2.27;;
63110;SDS011;49201;53.426;10.300;2022-09-16T16:39:37;7.30;;;2.00;;
63110;SDS011;49201;53.426;10.300;2022-09-16T16:42:03;6.97;;;1.53;;
63110;SDS011;49201;53.426;10.300;2022-09-16T16:44:33;7.70;;;1.53;;
63110;SDS011;49201;53.426;10.300;2022-09-16T16:46:58;4.60;;;1.40;;
63110;SDS011;49201;53.426;10.300;2022-09-16T16:49:25;8.00;;;1.70;;
63110;SDS011;49201;53.426;10.300;2022-09-16T16:51:50;6.20;;;1.33;;
63110;SDS011;49201;53.426;10.300;2022-09-16T16:54:19;10.50;;;1.60;;
63110;SDS011;49201;53.426;10.300;2022-09-16T16:56:45;4.10;;;1.30;;
63110;SDS011;49201;53.426;10.300;2022-09-16T16:59:12;6.57;;;1.43;;
63110;SDS011;49201;53.426;10.300;2022-09-16T17:01:38;4.03;;;1.30;;
63110;SDS011;49201;53.426;10.300;2022-09-16T17:04:04;5.27;;;1.47;;
63110;SDS011;49201;53.426;10.300;2022-09-16T17:06:30;4.87;;;1.40;;
63110;SDS011;49201;53.426;10.300;2022-09-16T17:08:56;3.50;;;1.00;;
63110;SDS011;49201;53.426;10.300;2022-09-16T17:11:22;4.30;;;1.13;;
63110;SDS011;49201;53.426;10.300;2022-09-16T17:13:49;9.53;;;1.60;;
63110;SDS011;49201;53.426;10.300;2022-09-16T17:16:17;5.13;;;1.27;;
63110;SDS011;49201;53.426;10.300;2022-09-16T17:18:45;5.47;;;1.30;;
63110;SDS011;49201;53.426;10.300;2022-09-16T17:21:12;7.03;;;2.20;;
63110;SDS011;49201;53.426;10.300;2022-09-16T17:23:38;10.43;;;2.70;;
63110;SDS011;49201;53.426;10.300;2022-09-16T17:26:04;8.10;;;2.47;;
63110;SDS011;49201;53.426;10.300;2022-09-16T17:28:31;10.40;;;2.83;;
63110;SDS011;49201;53.426;10.300;2022-09-16T17:30:56;7.87;;;2.33;;
63110;SDS011;49201;53.426;10.300;2022-09-16T17:33:22;9.00;;;2.23;;
63110;SDS011;49201;53.426;10.300;2022-09-16T17:35:57;9.47;;;2.47;;
63110;SDS011;49201;53.426;10.300;2022-09-16T17:38:27;10.40;;;2.33;;
63110;SDS011;49201;53.426;10.300;2022-09-16T17:40:58;9.97;;;2.00;;
63110;SDS011;49201;53.426;10.300;2022-09-16T17:43:26;5.80;;;1.70;;
63110;SDS011;49201;53.426;10.300;2022-09-16T17:45:51;9.37;;;2.37;;
63110;SDS011;49201;53.426;10.300;2022-09-16T17:48:17;8.60;;;1.73;;
63110;SDS011;49201;53.426;10.300;2022-09-16T17:50:43;8.13;;;1.47;;
63110;SDS011;49201;53.426;10.300;2022-09-16T17:53:08;5.77;;;2.00;;
63110;SDS011;49201;53.426;10.300;2022-09-16T17:55:33;7.17;;;1.90;;
63110;SDS011;49201;53.426;10.300;2022-09-16T17:57:59;10.70;;;2.23;;
63110;SDS011;49201;53.426;10.300;2022-09-16T18:00:24;13.00;;;2.60;;
63110;SDS011;49201;53.426;10.300;2022-09-16T18:02:49;7.83;;;2.13;;
63110;SDS011;49201;53.426;10.300;2022-09-16T18:05:15;9.70;;;2.00;;
63110;SDS011;49201;53.426;10.300;2022-09-16T18:07:43;11.83;;;2.03;;
63110;SDS011;49201;53.426;10.300;2022-09-16T18:10:10;6.63;;;1.70;;
63110;SDS011;49201;53.426;10.300;2022-09-16T18:12:35;10.57;;;2.40;;
63110;SDS011;49201;53.426;10.300;2022-09-16T18:15:00;8.20;;;1.87;;
63110;SDS011;49201;53.426;10.300;2022-09-16T18:17:26;9.80;;;2.17;;
63110;SDS011;49201;53.426;10.300;2022-09-16T18:19:51;11.30;;;2.37;;
63110;SDS011;49201;53.426;10.300;2022-09-16T18:22:18;7.83;;;2.00;;
63110;SDS011;49201;53.426;10.300;2022-09-16T18:24:43;5.00;;;1.90;;
63110;SDS011;49201;53.426;10.300;2022-09-16T18:27:09;7.93;;;1.90;;
63110;SDS011;49201;53.426;10.300;2022-09-16T18:29:34;12.07;;;2.30;;
63110;SDS011;49201;53.426;10.300;2022-09-16T18:32:00;9.97;;;2.03;;
63110;SDS011;49201;53.426;10.300;2022-09-16T18:34:25;11.30;;;2.40;;
63110;SDS011;49201;53.426;10.300;2022-09-16T18:36:51;12.57;;;1.77;;